Αρχική σελίδα
METAR-TAF:

METAR-TAF

Αεροδρόμια :

Βανκούβερ, Βρετανική Κολομβία, Καναδάς

γεωγραφικό πλάτος: 49-11N, γεωγραφικό μήκος: 123-10W, υψόμετρο: 3 μ

Παρών καιρός

Η αναφορά έγινε 16 λεπτά πριν, στις 05:15 UTC
Άνεμος 4 kt από Α/BA
Θερμοκρασία 2°C
Υγρασία 93%
Πίεση 1025 hPa
Ορατότητα: 32.2 χλμ
Λίγα νέφη σε ύψος 24000 πόδια

METAR: CYVR 180515Z 07004KT 20SM FEW240 02/01 A3027 RMK CI1 SLP251

Χρόνος: 21:31 (05:31 UTC)

Πρόγνωση Καιρού

Η αναφορά έγινε 2 ώρες και 53 λεπτά πριν, στις 02:38 UTC
Η πρόγνωση ισχύει από τις 18 στις 03 UTC έως τις 19 στις 06 UTC
Άνεμος 5 kt από Β/BΔ
Ορατότητα: 10 χλμ
Λίγα νέφη σε ύψος 25000 πόδια
Καθιστάμενος
από 18 στις 04 UTC έως τις 18 στις 06 UTC
Άνεμος 5 kt από Α
Καθιστάμενος
από 18 στις 20 UTC έως τις 18 στις 22 UTC
Άνεμος 7 kt από Δ

TAF: CYVR 180238Z 1803/1906 33005KT P6SM FEW250 BECMG 1804/1806 10005KT BECMG 1820/1822 27007KT RMK NXT FCST BY 180600Z

Μετεωρολογικές αναφορές και προγνώσεις για περισσότερα από 4000 αεροδρόμια (δελτία METAR και TAF).

Οι διαθέσιμοι σταθμοί απεικονίζονται στο χάρτη με κίτρινες και κόκκινες κουκκίδες.

Μετακινήστε το ποντίκι πάνω από τις κουκκίδες για να δείτε το όνομα του σταθμού.

Στη συνέχεια, κάντε κλικ για να δείτε τις μετεωρολογικές αναφορές και τις προγνώσεις καιρού.

Για να αλλάξετε το χάρτη: κάντε κλικ στα πράσινα κουμπιά με τον μαύρο σταυρό για να ζουμάρετε, στο πράσινο κουμπί με την παύλα για να αφαιρέσετε το ζουμ ή στα πράσινα βέλη για να αντιπαραβάλλετε χάρτες.


METAR-TAF: